sensor_id;sensor_type;location;lat;lon;timestamp;pressure;altitude;pressure_sealevel;temperature;humidity
19811;BME280;10065;49.632;8.346;2022-09-12T00:00:20;100714.44;;;18.55;77.92
19811;BME280;10065;49.632;8.346;2022-09-12T00:02:51;100711.38;;;18.58;77.14
19811;BME280;10065;49.632;8.346;2022-09-12T00:05:21;100709.50;;;18.58;77.26
19811;BME280;10065;49.632;8.346;2022-09-12T00:07:49;100711.28;;;18.51;78.01
19811;BME280;10065;49.632;8.346;2022-09-12T00:10:17;100714.16;;;18.50;77.86
19811;BME280;10065;49.632;8.346;2022-09-12T00:12:44;100712.31;;;18.50;77.77
19811;BME280;10065;49.632;8.346;2022-09-12T00:15:12;100708.38;;;18.46;78.33
19811;BME280;10065;49.632;8.346;2022-09-12T00:17:40;100704.84;;;18.46;78.32
19811;BME280;10065;49.632;8.346;2022-09-12T00:20:08;100698.47;;;18.47;78.16
19811;BME280;10065;49.632;8.346;2022-09-12T00:22:38;100710.41;;;18.44;78.94
19811;BME280;10065;49.632;8.346;2022-09-12T00:25:06;100707.66;;;18.37;78.91
19811;BME280;10065;49.632;8.346;2022-09-12T00:27:34;100700.88;;;18.41;78.07
19811;BME280;10065;49.632;8.346;2022-09-12T00:30:04;100700.88;;;18.41;78.45
19811;BME280;10065;49.632;8.346;2022-09-12T00:32:32;100701.25;;;18.38;78.54
19811;BME280;10065;49.632;8.346;2022-09-12T00:35:00;100696.78;;;18.46;78.02
19811;BME280;10065;49.632;8.346;2022-09-12T00:37:28;100696.94;;;18.37;78.46
19811;BME280;10065;49.632;8.346;2022-09-12T00:39:57;100691.94;;;18.34;79.12
19811;BME280;10065;49.632;8.346;2022-09-12T00:42:25;100691.28;;;18.32;79.34
19811;BME280;10065;49.632;8.346;2022-09-12T00:44:53;100695.78;;;18.25;79.28
19811;BME280;10065;49.632;8.346;2022-09-12T00:47:26;100697.38;;;18.20;79.89
19811;BME280;10065;49.632;8.346;2022-09-12T00:49:58;100694.25;;;18.16;79.81
19811;BME280;10065;49.632;8.346;2022-09-12T00:52:29;100697.75;;;18.17;80.06
19811;BME280;10065;49.632;8.346;2022-09-12T00:55:03;100699.38;;;18.11;79.88
19811;BME280;10065;49.632;8.346;2022-09-12T00:57:35;100696.41;;;18.06;80.19
19811;BME280;10065;49.632;8.346;2022-09-12T01:00:07;100695.75;;;18.04;80.18
19811;BME280;10065;49.632;8.346;2022-09-12T01:02:39;100700.31;;;18.03;79.87
19811;BME280;10065;49.632;8.346;2022-09-12T01:05:08;100694.94;;;18.03;79.64
19811;BME280;10065;49.632;8.346;2022-09-12T01:07:37;100688.94;;;18.01;79.79
19811;BME280;10065;49.632;8.346;2022-09-12T01:10:08;100686.69;;;18.05;79.33
19811;BME280;10065;49.632;8.346;2022-09-12T01:12:38;100684.00;;;18.05;79.13
19811;BME280;10065;49.632;8.346;2022-09-12T01:15:07;100690.41;;;18.04;79.20
19811;BME280;10065;49.632;8.346;2022-09-12T01:17:43;100692.00;;;17.98;79.04
19811;BME280;10065;49.632;8.346;2022-09-12T01:20:47;100688.69;;;17.96;79.02
19811;BME280;10065;49.632;8.346;2022-09-12T01:26:43;100681.84;;;17.94;78.80
19811;BME280;10065;49.632;8.346;2022-09-12T01:29:40;100689.06;;;17.93;79.02
19811;BME280;10065;49.632;8.346;2022-09-12T01:32:20;100690.00;;;17.86;79.17
19811;BME280;10065;49.632;8.346;2022-09-12T01:34:53;100683.84;;;17.85;78.98
19811;BME280;10065;49.632;8.346;2022-09-12T01:37:28;100683.06;;;17.91;78.45
19811;BME280;10065;49.632;8.346;2022-09-12T01:40:05;100681.22;;;17.92;78.09
19811;BME280;10065;49.632;8.346;2022-09-12T01:42:40;100678.00;;;17.82;78.75
19811;BME280;10065;49.632;8.346;2022-09-12T01:45:17;100676.94;;;17.76;78.77
19811;BME280;10065;49.632;8.346;2022-09-12T01:47:53;100680.03;;;17.80;78.79
19811;BME280;10065;49.632;8.346;2022-09-12T01:50:26;100670.16;;;17.80;78.99
19811;BME280;10065;49.632;8.346;2022-09-12T01:52:57;100676.81;;;17.70;79.04
19811;BME280;10065;49.632;8.346;2022-09-12T01:55:28;100668.34;;;17.66;79.89
19811;BME280;10065;49.632;8.346;2022-09-12T01:58:02;100672.97;;;17.57;79.23
19811;BME280;10065;49.632;8.346;2022-09-12T02:00:33;100672.03;;;17.50;79.50
19811;BME280;10065;49.632;8.346;2022-09-12T02:03:07;100661.97;;;17.52;80.21
19811;BME280;10065;49.632;8.346;2022-09-12T02:05:42;100668.72;;;17.63;79.23
19811;BME280;10065;49.632;8.346;2022-09-12T02:08:13;100666.88;;;17.63;78.99
19811;BME280;10065;49.632;8.346;2022-09-12T02:10:47;100661.00;;;17.60;79.29
19811;BME280;10065;49.632;8.346;2022-09-12T02:13:18;100659.56;;;17.57;79.60
19811;BME280;10065;49.632;8.346;2022-09-12T02:15:51;100660.50;;;17.64;79.00
19811;BME280;10065;49.632;8.346;2022-09-12T02:18:23;100660.13;;;17.67;78.43
19811;BME280;10065;49.632;8.346;2022-09-12T02:20:53;100655.97;;;17.65;79.07
19811;BME280;10065;49.632;8.346;2022-09-12T02:23:23;100660.38;;;17.58;79.19
19811;BME280;10065;49.632;8.346;2022-09-12T02:25:55;100649.19;;;17.54;79.39
19811;BME280;10065;49.632;8.346;2022-09-12T02:28:26;100659.56;;;17.57;79.03
19811;BME280;10065;49.632;8.346;2022-09-12T02:31:00;100650.88;;;17.55;79.11
19811;BME280;10065;49.632;8.346;2022-09-12T02:33:42;100645.88;;;17.52;79.14
19811;BME280;10065;49.632;8.346;2022-09-12T02:36:16;100644.97;;;17.45;79.32
19811;BME280;10065;49.632;8.346;2022-09-12T02:38:49;100645.72;;;17.39;79.19
19811;BME280;10065;49.632;8.346;2022-09-12T02:41:19;100641.56;;;17.37;79.56
19811;BME280;10065;49.632;8.346;2022-09-12T02:43:48;100655.53;;;17.32;79.31
19811;BME280;10065;49.632;8.346;2022-09-12T02:46:21;100650.72;;;17.27;79.57
19811;BME280;10065;49.632;8.346;2022-09-12T02:48:51;100650.56;;;17.29;79.82
19811;BME280;10065;49.632;8.346;2022-09-12T02:51:20;100647.88;;;17.29;80.00
19811;BME280;10065;49.632;8.346;2022-09-12T02:53:49;100646.22;;;17.28;79.88
19811;BME280;10065;49.632;8.346;2022-09-12T02:56:21;100649.25;;;17.25;80.47
19811;BME280;10065;49.632;8.346;2022-09-12T02:58:50;100644.47;;;17.20;80.45
19811;BME280;10065;49.632;8.346;2022-09-12T03:01:33;100640.31;;;17.18;80.37
19811;BME280;10065;49.632;8.346;2022-09-12T03:04:18;100644.66;;;17.19;80.39
19811;BME280;10065;49.632;8.346;2022-09-12T03:07:02;100638.91;;;17.22;80.23
19811;BME280;10065;49.632;8.346;2022-09-12T03:09:37;100642.50;;;17.29;79.75
19811;BME280;10065;49.632;8.346;2022-09-12T03:12:25;100633.44;;;17.30;79.51
19811;BME280;10065;49.632;8.346;2022-09-12T03:15:06;100637.03;;;17.37;79.27
19811;BME280;10065;49.632;8.346;2022-09-12T03:17:45;100629.72;;;17.46;78.46
19811;BME280;10065;49.632;8.346;2022-09-12T03:20:26;100626.91;;;17.54;77.94
19811;BME280;10065;49.632;8.346;2022-09-12T03:23:00;100626.09;;;17.53;78.08
19811;BME280;10065;49.632;8.346;2022-09-12T03:25:33;100631.81;;;17.50;78.31
19811;BME280;10065;49.632;8.346;2022-09-12T03:28:05;100632.31;;;17.39;79.31
19811;BME280;10065;49.632;8.346;2022-09-12T03:30:37;100634.34;;;17.37;79.47
19811;BME280;10065;49.632;8.346;2022-09-12T03:33:09;100635.00;;;17.39;79.56
19811;BME280;10065;49.632;8.346;2022-09-12T03:35:38;100635.84;;;17.40;79.39
19811;BME280;10065;49.632;8.346;2022-09-12T03:38:06;100640.38;;;17.39;79.29
19811;BME280;10065;49.632;8.346;2022-09-12T03:40:34;100630.38;;;17.33;79.65
19811;BME280;10065;49.632;8.346;2022-09-12T03:43:02;100630.78;;;17.30;79.82
19811;BME280;10065;49.632;8.346;2022-09-12T03:45:30;100634.09;;;17.32;79.68
19811;BME280;10065;49.632;8.346;2022-09-12T03:47:58;100645.84;;;17.31;80.16
19811;BME280;10065;49.632;8.346;2022-09-12T03:50:26;100637.81;;;17.31;80.04
19811;BME280;10065;49.632;8.346;2022-09-12T03:52:57;100640.66;;;17.29;79.89
19811;BME280;10065;49.632;8.346;2022-09-12T03:55:25;100642.22;;;17.24;79.98
19811;BME280;10065;49.632;8.346;2022-09-12T03:57:53;100642.78;;;17.19;80.51
19811;BME280;10065;49.632;8.346;2022-09-12T04:00:21;100641.31;;;17.17;80.53
19811;BME280;10065;49.632;8.346;2022-09-12T04:02:52;100635.88;;;17.10;81.11
19811;BME280;10065;49.632;8.346;2022-09-12T04:05:21;100642.06;;;17.11;80.69
19811;BME280;10065;49.632;8.346;2022-09-12T04:07:49;100643.44;;;17.07;81.03
19811;BME280;10065;49.632;8.346;2022-09-12T04:10:18;100644.75;;;17.11;80.99
19811;BME280;10065;49.632;8.346;2022-09-12T04:12:45;100641.50;;;17.15;80.12
19811;BME280;10065;49.632;8.346;2022-09-12T04:15:13;100640.94;;;17.20;79.47
19811;BME280;10065;49.632;8.346;2022-09-12T04:17:41;100638.44;;;17.18;78.93
19811;BME280;10065;49.632;8.346;2022-09-12T04:20:09;100641.41;;;17.23;78.83
19811;BME280;10065;49.632;8.346;2022-09-12T04:22:36;100640.59;;;17.23;78.82
19811;BME280;10065;49.632;8.346;2022-09-12T04:25:05;100641.31;;;17.17;79.30
19811;BME280;10065;49.632;8.346;2022-09-12T04:27:36;100637.63;;;17.18;78.98
19811;BME280;10065;49.632;8.346;2022-09-12T04:30:04;100642.31;;;17.16;79.50
19811;BME280;10065;49.632;8.346;2022-09-12T04:32:32;100643.38;;;17.15;79.42
19811;BME280;10065;49.632;8.346;2022-09-12T04:35:00;100647.25;;;17.12;79.91
19811;BME280;10065;49.632;8.346;2022-09-12T04:37:27;100643.84;;;17.04;80.27
19811;BME280;10065;49.632;8.346;2022-09-12T04:39:55;100644.00;;;17.02;80.59
19811;BME280;10065;49.632;8.346;2022-09-12T04:42:25;100639.75;;;17.08;80.51
19811;BME280;10065;49.632;8.346;2022-09-12T04:44:54;100644.75;;;17.11;80.29
19811;BME280;10065;49.632;8.346;2022-09-12T04:47:21;100637.72;;;17.10;80.32
19811;BME280;10065;49.632;8.346;2022-09-12T04:49:49;100645.75;;;17.10;80.22
19811;BME280;10065;49.632;8.346;2022-09-12T04:52:17;100644.00;;;17.17;79.53
19811;BME280;10065;49.632;8.346;2022-09-12T04:54:45;100643.88;;;17.25;79.46
19811;BME280;10065;49.632;8.346;2022-09-12T04:57:12;100640.94;;;17.20;79.82
19811;BME280;10065;49.632;8.346;2022-09-12T04:59:40;100641.22;;;17.25;80.17
19811;BME280;10065;49.632;8.346;2022-09-12T05:02:09;100641.22;;;17.25;80.73
19811;BME280;10065;49.632;8.346;2022-09-12T05:04:37;100631.91;;;17.21;81.25
19811;BME280;10065;49.632;8.346;2022-09-12T05:07:04;100638.19;;;17.13;82.29
19811;BME280;10065;49.632;8.346;2022-09-12T05:09:32;100635.34;;;17.15;82.41
19811;BME280;10065;49.632;8.346;2022-09-12T05:12:00;100629.41;;;17.19;82.01
19811;BME280;10065;49.632;8.346;2022-09-12T05:14:31;100634.09;;;17.17;81.32
19811;BME280;10065;49.632;8.346;2022-09-12T05:16:59;100636.97;;;17.16;81.52
19811;BME280;10065;49.632;8.346;2022-09-12T05:19:29;100642.97;;;17.18;81.06
19811;BME280;10065;49.632;8.346;2022-09-12T05:21:58;100631.72;;;17.08;81.58
19811;BME280;10065;49.632;8.346;2022-09-12T05:24:26;100640.69;;;17.00;82.12
19811;BME280;10065;49.632;8.346;2022-09-12T05:26:54;100643.75;;;16.97;81.86
19811;BME280;10065;49.632;8.346;2022-09-12T05:29:21;100638.56;;;16.96;82.39
19811;BME280;10065;49.632;8.346;2022-09-12T05:31:50;100636.16;;;17.01;81.29
19811;BME280;10065;49.632;8.346;2022-09-12T05:34:19;100637.81;;;17.02;81.43
19811;BME280;10065;49.632;8.346;2022-09-12T05:36:48;100630.03;;;17.07;81.06
19811;BME280;10065;49.632;8.346;2022-09-12T05:39:16;100643.25;;;17.08;81.04
19811;BME280;10065;49.632;8.346;2022-09-12T05:41:44;100635.34;;;17.15;80.62
19811;BME280;10065;49.632;8.346;2022-09-12T05:44:13;100639.66;;;17.16;81.19
19811;BME280;10065;49.632;8.346;2022-09-12T05:46:42;100642.53;;;17.14;80.73
19811;BME280;10065;49.632;8.346;2022-09-12T05:49:11;100639.38;;;17.11;81.35
19811;BME280;10065;49.632;8.346;2022-09-12T05:51:41;100639.13;;;17.06;81.63
19811;BME280;10065;49.632;8.346;2022-09-12T05:54:12;100644.50;;;17.06;81.77
19811;BME280;10065;49.632;8.346;2022-09-12T05:56:42;100643.38;;;17.15;80.96
19811;BME280;10065;49.632;8.346;2022-09-12T05:59:11;100645.41;;;17.13;81.09
19811;BME280;10065;49.632;8.346;2022-09-12T06:01:39;100646.34;;;17.05;81.33
19811;BME280;10065;49.632;8.346;2022-09-12T06:04:08;100650.19;;;17.03;82.12
19811;BME280;10065;49.632;8.346;2022-09-12T06:06:38;100645.75;;;17.10;81.92
19811;BME280;10065;49.632;8.346;2022-09-12T06:09:07;100645.22;;;17.14;81.83
19811;BME280;10065;49.632;8.346;2022-09-12T06:11:37;100649.94;;;17.12;82.35
19811;BME280;10065;49.632;8.346;2022-09-12T06:14:08;100651.78;;;17.12;82.74
19811;BME280;10065;49.632;8.346;2022-09-12T06:16:36;100651.59;;;17.13;83.25
19811;BME280;10065;49.632;8.346;2022-09-12T06:19:05;100651.50;;;17.21;82.97
19811;BME280;10065;49.632;8.346;2022-09-12T06:21:33;100653.41;;;17.27;82.40
19811;BME280;10065;49.632;8.346;2022-09-12T06:24:04;100639.66;;;17.30;82.61
19811;BME280;10065;49.632;8.346;2022-09-12T06:26:32;100649.72;;;17.28;83.17
19811;BME280;10065;49.632;8.346;2022-09-12T06:29:02;100633.81;;;17.27;83.80
19811;BME280;10065;49.632;8.346;2022-09-12T06:31:31;100640.84;;;17.28;84.30
19811;BME280;10065;49.632;8.346;2022-09-12T06:34:01;100626.13;;;17.39;83.60
19811;BME280;10065;49.632;8.346;2022-09-12T06:36:30;100629.66;;;17.39;83.76
19811;BME280;10065;49.632;8.346;2022-09-12T06:39:00;100634.59;;;17.42;83.47
19811;BME280;10065;49.632;8.346;2022-09-12T06:41:29;100636.47;;;17.42;83.73
19811;BME280;10065;49.632;8.346;2022-09-12T06:43:58;100637.94;;;17.44;83.41
19811;BME280;10065;49.632;8.346;2022-09-12T06:46:27;100648.94;;;17.49;84.07
19811;BME280;10065;49.632;8.346;2022-09-12T06:48:56;100653.34;;;17.57;82.84
19811;BME280;10065;49.632;8.346;2022-09-12T06:51:25;100652.97;;;17.60;82.33
19811;BME280;10065;49.632;8.346;2022-09-12T06:53:54;100653.78;;;17.60;82.33
19811;BME280;10065;49.632;8.346;2022-09-12T06:56:24;100656.31;;;17.62;82.59
19811;BME280;10065;49.632;8.346;2022-09-12T06:58:55;100657.88;;;17.71;81.61
19811;BME280;10065;49.632;8.346;2022-09-12T07:01:24;100659.53;;;17.72;82.24
19811;BME280;10065;49.632;8.346;2022-09-12T07:03:55;100662.41;;;17.71;82.20
19811;BME280;10065;49.632;8.346;2022-09-12T07:06:25;100651.13;;;17.75;82.58
19811;BME280;10065;49.632;8.346;2022-09-12T07:08:57;100656.72;;;17.80;82.17
19811;BME280;10065;49.632;8.346;2022-09-12T07:11:27;100656.19;;;17.85;82.03
19811;BME280;10065;49.632;8.346;2022-09-12T07:13:56;100655.13;;;17.86;82.11
19811;BME280;10065;49.632;8.346;2022-09-12T07:16:24;100658.31;;;17.96;81.97
19811;BME280;10065;49.632;8.346;2022-09-12T07:18:55;100654.91;;;18.02;81.79
19811;BME280;10065;49.632;8.346;2022-09-12T07:21:23;100655.53;;;18.04;81.61
19811;BME280;10065;49.632;8.346;2022-09-12T07:23:51;100651.44;;;18.08;80.94
19811;BME280;10065;49.632;8.346;2022-09-12T07:26:20;100648.81;;;18.15;80.05
19811;BME280;10065;49.632;8.346;2022-09-12T07:28:50;100647.59;;;18.17;79.56
19811;BME280;10065;49.632;8.346;2022-09-12T07:31:20;100651.50;;;18.15;80.31
19811;BME280;10065;49.632;8.346;2022-09-12T07:33:49;100644.91;;;18.17;80.03
19811;BME280;10065;49.632;8.346;2022-09-12T07:36:23;100649.91;;;18.20;80.82
19811;BME280;10065;49.632;8.346;2022-09-12T07:38:55;100648.66;;;18.23;80.80
19811;BME280;10065;49.632;8.346;2022-09-12T07:41:24;100641.63;;;18.22;80.94
19811;BME280;10065;49.632;8.346;2022-09-12T07:43:53;100653.22;;;18.22;81.82
19811;BME280;10065;49.632;8.346;2022-09-12T07:46:22;100644.97;;;18.24;81.33
19811;BME280;10065;49.632;8.346;2022-09-12T07:48:50;100644.63;;;18.33;80.83
19811;BME280;10065;49.632;8.346;2022-09-12T07:51:19;100637.28;;;18.42;80.65
19811;BME280;10065;49.632;8.346;2022-09-12T07:53:48;100641.09;;;18.54;80.23
19811;BME280;10065;49.632;8.346;2022-09-12T07:56:18;100637.03;;;18.65;79.34
19811;BME280;10065;49.632;8.346;2022-09-12T07:58:48;100636.50;;;18.76;78.88
19811;BME280;10065;49.632;8.346;2022-09-12T08:01:17;100629.31;;;18.83;79.46
19811;BME280;10065;49.632;8.346;2022-09-12T08:03:47;100632.66;;;18.92;79.33
19811;BME280;10065;49.632;8.346;2022-09-12T08:06:16;100628.59;;;19.02;78.37
19811;BME280;10065;49.632;8.346;2022-09-12T08:08:46;100630.72;;;19.13;77.82
19811;BME280;10065;49.632;8.346;2022-09-12T08:11:16;100633.66;;;19.25;78.01
19811;BME280;10065;49.632;8.346;2022-09-12T08:13:45;100630.19;;;19.38;76.44
19811;BME280;10065;49.632;8.346;2022-09-12T08:16:20;100632.97;;;19.51;75.91
19811;BME280;10065;49.632;8.346;2022-09-12T08:18:48;100639.19;;;19.65;76.25
19811;BME280;10065;49.632;8.346;2022-09-12T08:21:18;100633.88;;;19.84;74.93
19811;BME280;10065;49.632;8.346;2022-09-12T08:23:46;100619.38;;;19.99;74.69
19811;BME280;10065;49.632;8.346;2022-09-12T08:26:15;100617.34;;;20.20;72.38
19811;BME280;10065;49.632;8.346;2022-09-12T08:28:44;100625.44;;;20.40;72.17
19811;BME280;10065;49.632;8.346;2022-09-12T08:31:13;100627.28;;;20.66;71.75
19811;BME280;10065;49.632;8.346;2022-09-12T08:33:42;100628.03;;;20.86;70.62
19811;BME280;10065;49.632;8.346;2022-09-12T08:36:11;100633.78;;;21.16;67.94
19811;BME280;10065;49.632;8.346;2022-09-12T08:38:41;100638.66;;;21.46;66.72
19811;BME280;10065;49.632;8.346;2022-09-12T08:41:14;100633.63;;;21.87;64.58
19811;BME280;10065;49.632;8.346;2022-09-12T08:43:58;100635.00;;;22.28;61.96
19811;BME280;10065;49.632;8.346;2022-09-12T08:46:34;100635.47;;;22.93;59.83
19811;BME280;10065;49.632;8.346;2022-09-12T08:49:04;100638.59;;;24.04;57.00
19811;BME280;10065;49.632;8.346;2022-09-12T08:51:38;100635.69;;;25.79;51.37
19811;BME280;10065;49.632;8.346;2022-09-12T08:54:12;100627.53;;;27.88;45.06
19811;BME280;10065;49.632;8.346;2022-09-12T08:56:44;100625.69;;;30.03;39.88
19811;BME280;10065;49.632;8.346;2022-09-12T08:59:14;100620.84;;;31.74;36.82
19811;BME280;10065;49.632;8.346;2022-09-12T09:01:43;100615.13;;;33.15;33.86
19811;BME280;10065;49.632;8.346;2022-09-12T09:07:17;100601.75;;;35.58;29.59
19811;BME280;10065;49.632;8.346;2022-09-12T09:10:00;100601.25;;;36.76;28.14
19811;BME280;10065;49.632;8.346;2022-09-12T09:12:36;100590.03;;;37.46;27.17
19811;BME280;10065;49.632;8.346;2022-09-12T09:15:20;100594.75;;;38.06;25.85
19811;BME280;10065;49.632;8.346;2022-09-12T09:17:54;100598.53;;;36.23;28.23
19811;BME280;10065;49.632;8.346;2022-09-12T09:20:28;100598.84;;;34.58;30.69
19811;BME280;10065;49.632;8.346;2022-09-12T09:23:00;100597.34;;;33.50;31.41
19811;BME280;10065;49.632;8.346;2022-09-12T09:25:38;100599.28;;;32.30;32.92
19811;BME280;10065;49.632;8.346;2022-09-12T09:28:13;100599.91;;;31.44;33.90
19811;BME280;10065;49.632;8.346;2022-09-12T09:30:45;100604.59;;;31.38;34.91
19811;BME280;10065;49.632;8.346;2022-09-12T09:33:19;100598.91;;;32.08;33.45
19811;BME280;10065;49.632;8.346;2022-09-12T09:35:53;100591.59;;;33.28;32.31
19811;BME280;10065;49.632;8.346;2022-09-12T09:38:24;100586.84;;;33.52;31.86
19811;BME280;10065;49.632;8.346;2022-09-12T09:41:11;100591.59;;;32.32;33.17
19811;BME280;10065;49.632;8.346;2022-09-12T09:43:43;100586.28;;;30.49;36.31
19811;BME280;10065;49.632;8.346;2022-09-12T09:46:13;100592.84;;;28.95;39.05
19811;BME280;10065;49.632;8.346;2022-09-12T09:48:43;100592.78;;;27.74;41.12
19811;BME280;10065;49.632;8.346;2022-09-12T09:51:14;100600.13;;;26.81;43.67
19811;BME280;10065;49.632;8.346;2022-09-12T09:53:46;100601.34;;;26.01;46.35
19811;BME280;10065;49.632;8.346;2022-09-12T09:56:27;100604.19;;;25.49;46.91
19811;BME280;10065;49.632;8.346;2022-09-12T09:59:07;100605.41;;;25.02;48.41
19811;BME280;10065;49.632;8.346;2022-09-12T10:01:36;100604.47;;;24.73;48.20
19811;BME280;10065;49.632;8.346;2022-09-12T10:04:17;100603.78;;;24.43;49.14
19811;BME280;10065;49.632;8.346;2022-09-12T10:06:46;100598.72;;;24.23;49.94
19811;BME280;10065;49.632;8.346;2022-09-12T10:09:20;100593.72;;;24.08;50.37
19811;BME280;10065;49.632;8.346;2022-09-12T10:11:49;100588.41;;;23.90;51.16
19811;BME280;10065;49.632;8.346;2022-09-12T10:14:32;100594.53;;;23.97;51.06
19811;BME280;10065;49.632;8.346;2022-09-12T10:17:21;100587.34;;;23.91;51.57
19811;BME280;10065;49.632;8.346;2022-09-12T10:19:49;100575.06;;;23.77;51.88
19811;BME280;10065;49.632;8.346;2022-09-12T10:22:38;100578.59;;;23.77;51.61
19811;BME280;10065;49.632;8.346;2022-09-12T10:25:10;100567.75;;;23.66;51.63
19811;BME280;10065;49.632;8.346;2022-09-12T10:27:40;100579.47;;;23.59;51.70
19811;BME280;10065;49.632;8.346;2022-09-12T10:30:16;100574.22;;;23.65;50.57
19811;BME280;10065;49.632;8.346;2022-09-12T10:32:48;100579.81;;;23.51;50.64
19811;BME280;10065;49.632;8.346;2022-09-12T10:35:18;100573.63;;;23.44;51.62
19811;BME280;10065;49.632;8.346;2022-09-12T10:37:51;100569.88;;;23.45;51.86
19811;BME280;10065;49.632;8.346;2022-09-12T10:40:22;100566.88;;;23.53;52.07
19811;BME280;10065;49.632;8.346;2022-09-12T10:42:52;100561.84;;;23.69;51.37
19811;BME280;10065;49.632;8.346;2022-09-12T10:45:26;100566.22;;;23.70;51.67
19811;BME280;10065;49.632;8.346;2022-09-12T10:47:58;100562.22;;;23.72;51.13
19811;BME280;10065;49.632;8.346;2022-09-12T10:50:35;100554.69;;;23.74;50.89
19811;BME280;10065;49.632;8.346;2022-09-12T10:53:13;100545.97;;;23.72;50.39
19811;BME280;10065;49.632;8.346;2022-09-12T10:55:58;100552.41;;;24.01;50.81
19811;BME280;10065;49.632;8.346;2022-09-12T10:58:41;100543.66;;;23.99;50.53
19811;BME280;10065;49.632;8.346;2022-09-12T11:01:23;100549.53;;;24.19;50.42
19811;BME280;10065;49.632;8.346;2022-09-12T11:07:09;100536.50;;;24.28;49.56
19811;BME280;10065;49.632;8.346;2022-09-12T11:09:47;100534.50;;;24.23;49.68
19811;BME280;10065;49.632;8.346;2022-09-12T11:12:23;100530.22;;;24.04;50.41
19811;BME280;10065;49.632;8.346;2022-09-12T11:15:02;100534.25;;;23.90;51.08
19811;BME280;10065;49.632;8.346;2022-09-12T11:17:46;100538.94;;;23.83;51.58
19811;BME280;10065;49.632;8.346;2022-09-12T11:20:50;100528.81;;;23.90;51.15
19811;BME280;10065;49.632;8.346;2022-09-12T11:23:48;100532.47;;;23.95;51.45
19811;BME280;10065;49.632;8.346;2022-09-12T11:26:33;100527.41;;;23.99;50.52
19811;BME280;10065;49.632;8.346;2022-09-12T11:29:12;100523.09;;;24.33;50.43
19811;BME280;10065;49.632;8.346;2022-09-12T11:31:53;100513.53;;;26.17;46.00
19811;BME280;10065;49.632;8.346;2022-09-12T11:34:34;100511.97;;;27.84;42.37
19811;BME280;10065;49.632;8.346;2022-09-12T11:37:18;100507.59;;;29.70;37.88
19811;BME280;10065;49.632;8.346;2022-09-12T11:39:50;100500.03;;;32.23;34.26
19811;BME280;10065;49.632;8.346;2022-09-12T11:42:29;100497.34;;;33.46;31.53
19811;BME280;10065;49.632;8.346;2022-09-12T11:45:03;100490.00;;;33.04;32.31
19811;BME280;10065;49.632;8.346;2022-09-12T11:47:35;100491.78;;;33.13;31.61
19811;BME280;10065;49.632;8.346;2022-09-12T11:50:14;100482.03;;;33.91;30.69
19811;BME280;10065;49.632;8.346;2022-09-12T11:52:46;100475.66;;;34.50;30.37
19811;BME280;10065;49.632;8.346;2022-09-12T11:55:16;100470.34;;;34.67;29.39
19811;BME280;10065;49.632;8.346;2022-09-12T11:57:48;100482.22;;;33.62;30.82
19811;BME280;10065;49.632;8.346;2022-09-12T12:00:20;100479.03;;;32.61;31.87
19811;BME280;10065;49.632;8.346;2022-09-12T12:02:56;100478.16;;;32.42;31.25
19811;BME280;10065;49.632;8.346;2022-09-12T12:05:29;100473.09;;;32.01;32.61
19811;BME280;10065;49.632;8.346;2022-09-12T12:08:01;100474.59;;;31.16;34.09
19811;BME280;10065;49.632;8.346;2022-09-12T12:10:35;100473.91;;;30.20;36.12
19811;BME280;10065;49.632;8.346;2022-09-12T12:13:07;100465.47;;;29.76;36.43
19811;BME280;10065;49.632;8.346;2022-09-12T12:15:44;100461.09;;;30.16;35.22
19811;BME280;10065;49.632;8.346;2022-09-12T12:18:17;100463.56;;;30.02;35.63
19811;BME280;10065;49.632;8.346;2022-09-12T12:20:45;100460.28;;;29.85;35.99
19811;BME280;10065;49.632;8.346;2022-09-12T12:23:26;100465.78;;;29.54;36.40
19811;BME280;10065;49.632;8.346;2022-09-12T12:25:56;100461.88;;;29.05;36.72
19811;BME280;10065;49.632;8.346;2022-09-12T12:28:57;100457.06;;;28.55;37.74
19811;BME280;10065;49.632;8.346;2022-09-12T12:31:25;100457.63;;;28.09;38.75
19811;BME280;10065;49.632;8.346;2022-09-12T12:34:18;100450.84;;;27.70;39.11
19811;BME280;10065;49.632;8.346;2022-09-12T12:36:47;100442.19;;;27.19;39.92
19811;BME280;10065;49.632;8.346;2022-09-12T12:43:02;100438.31;;;26.23;41.94
19811;BME280;10065;49.632;8.346;2022-09-12T12:49:04;100428.56;;;25.83;42.85
19811;BME280;10065;49.632;8.346;2022-09-12T12:51:44;100430.78;;;25.70;42.83
19811;BME280;10065;49.632;8.346;2022-09-12T12:57:45;100424.47;;;25.64;42.90
19811;BME280;10065;49.632;8.346;2022-09-12T13:00:33;100427.41;;;25.63;43.01
19811;BME280;10065;49.632;8.346;2022-09-12T13:03:09;100423.19;;;25.55;42.83
19811;BME280;10065;49.632;8.346;2022-09-12T13:05:47;100421.88;;;25.41;43.13
19811;BME280;10065;49.632;8.346;2022-09-12T13:08:27;100423.84;;;25.29;43.85
19811;BME280;10065;49.632;8.346;2022-09-12T13:10:59;100423.19;;;25.22;44.07
19811;BME280;10065;49.632;8.346;2022-09-12T13:13:31;100413.28;;;25.16;43.99
19811;BME280;10065;49.632;8.346;2022-09-12T13:16:03;100411.28;;;25.23;43.19
19811;BME280;10065;49.632;8.346;2022-09-12T13:18:37;100407.97;;;25.21;43.21
19811;BME280;10065;49.632;8.346;2022-09-12T13:21:09;100407.81;;;25.27;43.01
19811;BME280;10065;49.632;8.346;2022-09-12T13:23:38;100397.13;;;25.21;43.21
19811;BME280;10065;49.632;8.346;2022-09-12T13:26:10;100397.47;;;25.24;42.57
19811;BME280;10065;49.632;8.346;2022-09-12T13:28:38;100393.81;;;25.19;42.40
19811;BME280;10065;49.632;8.346;2022-09-12T13:31:11;100391.28;;;25.12;42.15
19811;BME280;10065;49.632;8.346;2022-09-12T13:33:45;100389.28;;;25.07;42.55
19811;BME280;10065;49.632;8.346;2022-09-12T13:36:32;100374.56;;;25.03;42.40